Time,TemperatureF,DewpointF,PressureIn,WindDirection,WindDirectionDegrees,WindSpeedMPH,WindSpeedGustMPH,Humidity,HourlyPrecipIn,Conditions,Clouds,dailyrainin,SoftwareType,DateUTC
2015-08-27 00:14:00,69.2,38.0,29.79,North,360,0.0,1.0,32,0.00,,,0.00,weatherlink.com 1.10,2015-08-27 06:14:00,
2015-08-27 00:29:00,68.7,38.0,29.79,North,360,0.0,4.0,33,0.00,,,0.00,weatherlink.com 1.10,2015-08-27 06:29:00,
2015-08-27 00:44:00,68.1,38.0,29.79,WSW,257,0.0,2.0,33,0.00,,,0.00,weatherlink.com 1.10,2015-08-27 06:44:00,
2015-08-27 00:59:00,67.6,38.0,29.79,North,360,0.0,0.0,34,0.00,,,0.00,weatherlink.com 1.10,2015-08-27 06:59:00,
2015-08-27 01:14:00,66.7,39.0,29.79,West,259,1.0,2.0,36,0.00,,,0.00,weatherlink.com 1.10,2015-08-27 07:14:00,
2015-08-27 01:29:00,65.0,39.0,29.79,NNW,340,3.0,4.0,39,0.00,,,0.00,weatherlink.com 1.10,2015-08-27 07:29:00,
2015-08-27 01:44:00,64.5,39.0,29.80,North,360,0.0,0.0,39,0.00,,,0.00,weatherlink.com 1.10,2015-08-27 07:44:00,
2015-08-27 01:59:00,64.7,38.0,29.80,North,360,0.0,0.0,38,0.00,,,0.00,weatherlink.com 1.10,2015-08-27 07:59:00,
2015-08-27 02:14:00,64.4,39.0,29.80,North,360,0.0,2.0,39,0.00,,,0.00,weatherlink.com 1.10,2015-08-27 08:14:00,
2015-08-27 02:29:00,64.1,38.0,29.80,North,360,0.0,0.0,39,0.00,,,0.00,weatherlink.com 1.10,2015-08-27 08:29:00,
2015-08-27 02:44:00,63.5,38.0,29.80,North,360,0.0,0.0,39,0.00,,,0.00,weatherlink.com 1.10,2015-08-27 08:44:00,
2015-08-27 02:59:00,63.1,38.0,29.80,North,360,0.0,0.0,40,0.00,,,0.00,weatherlink.com 1.10,2015-08-27 08:59:00,
2015-08-27 03:14:00,62.7,38.0,29.80,North,360,0.0,0.0,40,0.00,,,0.00,weatherlink.com 1.10,2015-08-27 09:14:00,
2015-08-27 03:29:00,62.9,38.0,29.80,North,360,0.0,0.0,40,0.00,,,0.00,weatherlink.com 1.10,2015-08-27 09:29:00,
2015-08-27 03:44:00,61.8,38.0,29.80,North,360,0.0,3.0,42,0.00,,,0.00,weatherlink.com 1.10,2015-08-27 09:44:00,
2015-08-27 04:01:00,61.7,41.0,29.80,SW,223,2.0,3.0,46,0.00,,,0.00,weatherlink.com 1.10,2015-08-27 10:01:00,
2015-08-27 04:14:00,60.8,41.0,29.80,North,360,2.0,3.0,48,0.00,,,0.00,weatherlink.com 1.10,2015-08-27 10:14:00,
2015-08-27 04:44:00,61.6,40.0,29.80,NE,56,0.0,1.0,45,0.00,,,0.00,weatherlink.com 1.10,2015-08-27 10:44:00,
2015-08-27 05:00:00,60.0,39.0,29.80,ENE,57,0.0,1.0,47,0.00,,,0.00,weatherlink.com 1.10,2015-08-27 11:00:00,
2015-08-27 05:14:00,59.7,39.0,29.80,ENE,58,0.0,0.0,47,0.00,,,0.00,weatherlink.com 1.10,2015-08-27 11:14:00,
2015-08-27 05:31:00,59.8,39.0,29.80,ENE,61,0.0,1.0,46,0.00,,,0.00,weatherlink.com 1.10,2015-08-27 11:31:00,
2015-08-27 05:46:00,59.3,40.0,29.80,SSW,201,2.0,3.0,49,0.00,,,0.00,weatherlink.com 1.10,2015-08-27 11:46:00,
2015-08-27 06:02:00,59.2,40.0,29.80,SSW,201,0.0,2.0,50,0.00,,,0.00,weatherlink.com 1.10,2015-08-27 12:02:00,
2015-08-27 06:15:00,59.8,41.0,29.80,North,360,0.0,3.0,50,0.00,,,0.00,weatherlink.com 1.10,2015-08-27 12:15:00,
2015-08-27 06:31:00,59.5,41.0,29.80,SSW,201,1.0,3.0,51,0.00,,,0.00,weatherlink.com 1.10,2015-08-27 12:31:00,
2015-08-27 06:45:00,60.0,44.0,29.81,SSW,201,3.0,4.0,55,0.00,,,0.00,weatherlink.com 1.10,2015-08-27 12:45:00,
2015-08-27 07:02:00,62.3,46.0,29.80,South,181,1.0,4.0,56,0.00,,,0.00,weatherlink.com 1.10,2015-08-27 13:02:00,
2015-08-27 07:30:00,60.6,44.0,29.81,South,181,4.0,4.0,55,0.00,,,0.00,weatherlink.com 1.10,2015-08-27 13:30:00,
2015-08-27 07:46:00,62.2,47.0,29.81,South,173,3.0,6.0,57,0.00,,,0.00,weatherlink.com 1.10,2015-08-27 13:46:00,
2015-08-27 08:00:00,62.7,47.0,29.81,South,188,8.0,8.0,58,0.00,,,0.00,weatherlink.com 1.10,2015-08-27 14:00:00,
2015-08-27 08:15:00,66.5,48.0,29.81,SSW,194,0.0,7.0,52,0.00,,,0.00,weatherlink.com 1.10,2015-08-27 14:15:00,
2015-08-27 08:30:00,68.5,49.0,29.81,SSW,206,10.0,12.0,50,0.00,,,0.00,weatherlink.com 1.10,2015-08-27 14:30:00,
2015-08-27 08:45:00,71.1,50.0,29.81,SSE,167,12.0,19.0,47,0.00,,,0.00,weatherlink.com 1.10,2015-08-27 14:45:00,
2015-08-27 09:00:00,73.4,49.0,29.81,SSW,201,9.0,19.0,43,0.00,,,0.00,weatherlink.com 1.10,2015-08-27 15:00:00,
2015-08-27 09:15:00,72.2,50.0,29.82,SSW,207,9.0,12.0,46,0.00,,,0.00,weatherlink.com 1.10,2015-08-27 15:15:00,
2015-08-27 09:30:00,72.8,50.0,29.81,SSE,163,9.0,13.0,44,0.00,,,0.00,weatherlink.com 1.10,2015-08-27 15:30:00,
2015-08-27 09:45:00,73.9,49.0,29.81,SSW,198,9.0,12.0,41,0.00,,,0.00,weatherlink.com 1.10,2015-08-27 15:45:00,
2015-08-27 10:00:00,72.3,50.0,29.82,SW,219,9.0,14.0,45,0.00,,,0.00,weatherlink.com 1.10,2015-08-27 16:00:00,
2015-08-27 10:15:00,72.4,50.0,29.82,SW,222,5.0,10.0,45,0.00,,,0.00,weatherlink.com 1.10,2015-08-27 16:15:00,
2015-08-27 10:30:00,74.0,48.0,29.79,SSE,151,13.0,19.0,40,0.00,,,0.00,weatherlink.com 1.10,2015-08-27 16:30:00,
2015-08-27 10:45:00,75.7,48.0,29.82,South,190,13.0,19.0,38,0.00,,,0.00,weatherlink.com 1.10,2015-08-27 16:45:00,
2015-08-27 11:01:00,75.7,49.0,29.81,SSE,164,13.0,20.0,39,0.00,,,0.00,weatherlink.com 1.10,2015-08-27 17:01:00,
2015-08-27 11:15:00,76.1,49.0,29.81,South,180,8.0,16.0,38,0.00,,,0.00,weatherlink.com 1.10,2015-08-27 17:15:00,
2015-08-27 11:30:00,76.9,48.0,29.81,SSE,159,8.0,17.0,36,0.00,,,0.00,weatherlink.com 1.10,2015-08-27 17:30:00,
2015-08-27 11:45:00,78.3,48.0,29.80,South,186,7.0,13.0,35,0.00,,,0.00,weatherlink.com 1.10,2015-08-27 17:45:00,
2015-08-27 12:02:00,79.3,47.0,29.80,SSE,158,10.0,16.0,32,0.00,,,0.00,weatherlink.com 1.10,2015-08-27 18:02:00,
2015-08-27 12:17:00,79.4,46.0,29.80,SSE,168,9.0,17.0,31,0.00,,,0.00,weatherlink.com 1.10,2015-08-27 18:17:00,
2015-08-27 12:30:00,79.3,46.0,29.79,SSE,155,17.0,21.0,31,0.00,,,0.00,weatherlink.com 1.10,2015-08-27 18:30:00,
2015-08-27 12:45:00,79.9,46.0,29.79,SSE,161,10.0,18.0,30,0.00,,,0.00,weatherlink.com 1.10,2015-08-27 18:45:00,
2015-08-27 13:03:00,80.9,47.0,29.79,South,186,10.0,16.0,30,0.00,,,0.00,weatherlink.com 1.10,2015-08-27 19:03:00,
2015-08-27 13:16:00,82.1,46.0,29.79,South,171,8.0,19.0,28,0.00,,,0.00,weatherlink.com 1.10,2015-08-27 19:16:00,
2015-08-27 13:33:00,82.8,46.0,29.78,SE,146,11.0,16.0,27,0.00,,,0.00,weatherlink.com 1.10,2015-08-27 19:33:00,
2015-08-27 14:02:00,81.4,45.0,29.78,SSE,157,13.0,20.0,28,0.00,,,0.00,weatherlink.com 1.10,2015-08-27 20:02:00,
2015-08-27 14:18:00,81.4,45.0,29.78,SSE,148,12.0,21.0,28,0.00,,,0.00,weatherlink.com 1.10,2015-08-27 20:18:00,
2015-08-27 14:48:00,82.3,44.0,29.77,SSE,156,9.0,17.0,26,0.00,,,0.00,weatherlink.com 1.10,2015-08-27 20:48:00,
2015-08-27 15:07:00,82.4,45.0,29.76,SE,140,9.0,17.0,27,0.00,,,0.00,weatherlink.com 1.10,2015-08-27 21:07:00,
2015-08-27 15:16:00,83.6,45.0,29.76,SE,128,14.0,17.0,26,0.00,,,0.00,weatherlink.com 1.10,2015-08-27 21:16:00,
2015-08-27 15:34:00,84.8,46.0,29.75,SSE,150,11.0,15.0,26,0.00,,,0.00,weatherlink.com 1.10,2015-08-27 21:34:00,
2015-08-27 15:46:00,85.6,45.0,29.75,SSE,162,6.0,15.0,24,0.00,,,0.00,weatherlink.com 1.10,2015-08-27 21:46:00,
2015-08-27 16:03:00,86.5,45.0,29.74,SE,142,9.0,14.0,23,0.00,,,0.00,weatherlink.com 1.10,2015-08-27 22:03:00,